Lincoln Park, Michigan
Current Conditions -  °F | °C
As of 4:53 AM on Monday 26 Jan 2015 (Local Time) from KDTW Reporting Station
Overcast Overcast  
Wind Chill:   Ceiling: 14000
Heat Index: 13°   Visibility: 10mi
Dew Point:   Wind: 8mph
Humidity: 67%   Direction: 10°N
Pressure: 29.94"   Gusts: NA
Location:  42.25°N, 83.18°W
Report Text: KDTW 260953Z 01007KT 10SM SCT095 BKN140 OVC200 M11/M16 A2994 RMK AO2 SLP148 T11061156
Loading
Personal Weather Stations






























Interactive Weather Map New forecast layout! Learn more

10-Day Weather Forecast

Advertisements
Track Severe Weather on mobile